Lockbourne, Ohio
Current Conditions -  °F | °C
As of 10:35 AM on Saturday 25 Oct 2014 (Local Time) from KLCK Reporting Station
Overcast Overcast  
Wind Chill: 11°   Ceiling: 5000
Heat Index: 11°   Visibility: 10mi
Dew Point:   Wind: 9mph
Humidity: 85%   Direction: 190°S
Pressure: 29.96"   Gusts: NA
Location:  39.81°N, 82.97°W
Report Text: KLCK 251435Z AUTO 19008KT 10SM OVC050 11/08 A2996 RMK AO2 T01070082
Loading
Personal Weather Stations






























Interactive Weather Map
Tropical Storm Tracking
New forecast layout! Learn more

10-Day Weather Forecast

Advertisements
Track Severe Weather on mobile